createdAt,value
2018-01-07T00:00:34.002Z,1012.68
2018-01-07T00:01:43.953Z,1012.75
2018-01-07T00:02:53.392Z,1012.73
2018-01-07T00:04:02.826Z,1012.83
2018-01-07T00:05:12.794Z,1012.85
2018-01-07T00:06:22.731Z,1012.82
2018-01-07T00:07:32.432Z,1012.92
2018-01-07T00:08:42.137Z,1012.92
2018-01-07T00:09:51.836Z,1013.01
2018-01-07T00:11:01.532Z,1013.02
2018-01-07T00:12:11.219Z,1013
2018-01-07T00:13:21.177Z,1013.02
2018-01-07T00:14:31.146Z,1012.99
2018-01-07T00:15:41.093Z,1013.06
2018-01-07T00:16:51.056Z,1013.03
2018-01-07T00:18:00.821Z,1013.06
2018-01-07T00:19:10.792Z,1013.06
2018-01-07T00:20:20.735Z,1013.11
2018-01-07T00:21:30.458Z,1013.14
2018-01-07T00:22:40.160Z,1013.08
2018-01-07T00:23:49.849Z,1013.17
2018-01-07T00:24:59.289Z,1013.15
2018-01-07T00:26:09.267Z,1013.08
2018-01-07T00:27:19.230Z,1013.22
2018-01-07T00:28:28.918Z,1013.25
2018-01-07T00:29:39.134Z,1013.24
2018-01-07T00:30:48.832Z,1013.23
2018-01-07T00:31:58.522Z,1013.26
2018-01-07T00:33:08.469Z,1013.3
2018-01-07T00:34:18.158Z,1013.33
2018-01-07T00:35:28.117Z,1013.3
2018-01-07T00:36:38.065Z,1013.35
2018-01-07T00:37:48.036Z,1013.37
2018-01-07T00:38:57.978Z,1013.36
2018-01-07T00:40:07.976Z,1013.38
2018-01-07T00:41:17.418Z,1013.45
2018-01-07T00:42:27.429Z,1013.42
2018-01-07T00:43:37.392Z,1013.44
2018-01-07T00:44:47.344Z,1013.45
2018-01-07T00:45:57.029Z,1013.48
2018-01-07T00:47:06.716Z,1013.53
2018-01-07T00:48:16.411Z,1013.57
2018-01-07T00:49:26.123Z,1013.59
2018-01-07T00:50:35.788Z,1013.61
2018-01-07T00:51:45.502Z,1013.67
2018-01-07T00:52:55.198Z,1013.65
2018-01-07T00:54:05.156Z,1013.68
2018-01-07T00:55:15.137Z,1013.73
2018-01-07T00:56:25.088Z,1013.69
2018-01-07T00:57:35.049Z,1013.7
2018-01-07T00:58:44.740Z,1013.73
2018-01-07T00:59:54.729Z,1013.78
2018-01-07T01:01:04.681Z,1013.76
2018-01-07T01:02:14.361Z,1013.81
2018-01-07T01:03:24.315Z,1013.84
2018-01-07T01:04:34.260Z,1013.77
2018-01-07T01:05:43.961Z,1013.81
2018-01-07T01:06:53.914Z,1013.85
2018-01-07T01:08:03.367Z,1013.84
2018-01-07T01:09:13.320Z,1013.88
2018-01-07T01:10:23.014Z,1013.92
2018-01-07T01:11:32.976Z,1013.89
2018-01-07T01:12:42.675Z,1013.91
2018-01-07T01:13:52.626Z,1013.89
2018-01-07T01:15:02.579Z,1013.93
2018-01-07T01:16:12.270Z,1013.92
2018-01-07T01:17:22.217Z,1014
2018-01-07T01:18:32.154Z,1014.02
2018-01-07T01:19:41.844Z,1014.11
2018-01-07T01:20:51.808Z,1014.11
2018-01-07T01:22:01.773Z,1014.14
2018-01-07T01:23:11.741Z,1014.15
2018-01-07T01:24:21.437Z,1014.13
2018-01-07T01:25:31.399Z,1014.16
2018-01-07T01:26:41.340Z,1014.2
2018-01-07T01:27:51.312Z,1014.21
2018-01-07T01:29:01.269Z,1014.2
2018-01-07T01:30:11.220Z,1014.26
2018-01-07T01:31:21.182Z,1014.29
2018-01-07T01:32:31.130Z,1014.34
2018-01-07T01:33:41.077Z,1014.34
2018-01-07T01:34:51.039Z,1014.38
2018-01-07T01:36:00.987Z,1014.39
2018-01-07T01:37:10.682Z,1014.41
2018-01-07T01:38:20.624Z,1014.42
2018-01-07T01:39:30.054Z,1014.49
2018-01-07T01:40:40.008Z,1014.44
2018-01-07T01:41:49.709Z,1014.48
2018-01-07T01:42:59.660Z,1014.52
2018-01-07T01:44:09.619Z,1014.55
2018-01-07T01:45:19.321Z,1014.56
2018-01-07T01:46:29.027Z,1014.55
2018-01-07T01:47:38.970Z,1014.55
2018-01-07T01:48:48.918Z,1014.57
2018-01-07T01:49:58.879Z,1014.64
2018-01-07T01:51:08.829Z,1014.62
2018-01-07T01:52:18.518Z,1014.71
2018-01-07T01:53:28.478Z,1014.7
2018-01-07T01:54:38.436Z,1014.71
2018-01-07T01:55:47.865Z,1014.74
2018-01-07T01:56:57.814Z,1014.78
2018-01-07T01:58:07.497Z,1014.77
2018-01-07T01:59:17.451Z,1014.81
2018-01-07T02:00:27.145Z,1014.84
2018-01-07T02:01:36.880Z,1014.86
2018-01-07T02:02:46.825Z,1014.87
2018-01-07T02:03:56.788Z,1014.89
2018-01-07T02:05:06.477Z,1014.96
2018-01-07T02:06:16.426Z,1014.94
2018-01-07T02:07:26.387Z,1014.96
2018-01-07T02:08:36.349Z,1014.92
2018-01-07T02:09:46.042Z,1014.97
2018-01-07T02:10:55.727Z,1015
2018-01-07T02:12:05.418Z,1014.93
2018-01-07T02:13:15.380Z,1014.99
2018-01-07T02:14:25.392Z,1014.93
2018-01-07T02:15:35.335Z,1015.02
2018-01-07T02:16:45.043Z,1015
2018-01-07T02:17:55.007Z,1015.06
2018-01-07T02:19:04.966Z,1015.02
2018-01-07T02:20:14.912Z,1015.06
2018-01-07T02:21:24.599Z,1015.08
2018-01-07T02:22:34.537Z,1015.12
2018-01-07T02:23:43.974Z,1015.21
2018-01-07T02:24:53.923Z,1015.27
2018-01-07T02:26:03.605Z,1015.26
2018-01-07T02:27:13.563Z,1015.28
2018-01-07T02:28:23.508Z,1015.31
2018-01-07T02:29:32.944Z,1015.28
2018-01-07T02:30:42.898Z,1015.32
2018-01-07T02:31:52.605Z,1015.27
2018-01-07T02:33:02.589Z,1015.3
2018-01-07T02:34:12.543Z,1015.35
2018-01-07T02:35:22.490Z,1015.28
2018-01-07T02:36:32.430Z,1015.4
2018-01-07T02:37:42.374Z,1015.39
2018-01-07T02:38:52.341Z,1015.4
2018-01-07T02:40:02.317Z,1015.36
2018-01-07T02:41:11.753Z,1015.42
2018-01-07T02:42:21.204Z,1015.49
2018-01-07T02:43:31.161Z,1015.49
2018-01-07T02:44:40.605Z,1015.49
2018-01-07T02:45:50.297Z,1015.5
2018-01-07T02:47:00.004Z,1015.53
2018-01-07T02:48:09.955Z,1015.55
2018-01-07T02:49:19.939Z,1015.61
2018-01-07T02:50:29.906Z,1015.62
2018-01-07T02:51:39.867Z,1015.64
2018-01-07T02:52:49.821Z,1015.63
2018-01-07T02:53:59.791Z,1015.63
2018-01-07T02:55:09.492Z,1015.71
2018-01-07T02:56:19.186Z,1015.66
2018-01-07T02:57:29.140Z,1015.72
2018-01-07T02:58:39.087Z,1015.77
2018-01-07T02:59:49.031Z,1015.74
2018-01-07T03:00:58.995Z,1015.73
2018-01-07T03:02:08.949Z,1015.66
2018-01-07T03:03:18.896Z,1015.78
2018-01-07T03:04:28.597Z,1015.75
2018-01-07T03:05:38.279Z,1015.8
2018-01-07T03:06:48.232Z,1015.77
2018-01-07T03:07:58.200Z,1015.86
2018-01-07T03:09:07.905Z,1015.93
2018-01-07T03:10:17.590Z,1015.91
2018-01-07T03:11:27.529Z,1015.99
2018-01-07T03:12:37.507Z,1015.97
2018-01-07T03:13:47.199Z,1015.97
2018-01-07T03:14:56.891Z,1016.01
2018-01-07T03:16:06.832Z,1016.03
2018-01-07T03:17:16.527Z,1016.05
2018-01-07T03:18:26.521Z,1016.06
2018-01-07T03:19:36.204Z,1016.11
2018-01-07T03:20:46.148Z,1016.08
2018-01-07T03:21:56.104Z,1016.12
2018-01-07T03:23:05.811Z,1016.11
2018-01-07T03:24:15.500Z,1016.18
2018-01-07T03:25:25.195Z,1016.18
2018-01-07T03:26:35.135Z,1016.23
2018-01-07T03:27:45.106Z,1016.18
2018-01-07T03:28:55.064Z,1016.24
2018-01-07T03:30:06.522Z,1016.28
2018-01-07T03:31:16.497Z,1016.21
2018-01-07T03:32:26.460Z,1016.26
2018-01-07T03:33:36.149Z,1016.31
2018-01-07T03:34:45.841Z,1016.32
2018-01-07T03:35:56.044Z,1016.32
2018-01-07T03:37:05.734Z,1016.36
2018-01-07T03:38:15.436Z,1016.4
2018-01-07T03:39:25.390Z,1016.5
2018-01-07T03:40:34.813Z,1016.48
2018-01-07T03:41:44.751Z,1016.46
2018-01-07T03:42:54.731Z,1016.48
2018-01-07T03:44:04.158Z,1016.54
2018-01-07T03:45:13.851Z,1016.56
2018-01-07T03:46:23.805Z,1016.59
2018-01-07T03:47:33.497Z,1016.61
2018-01-07T03:48:43.442Z,1016.61
2018-01-07T03:49:53.390Z,1016.66
2018-01-07T03:51:03.338Z,1016.64
2018-01-07T03:52:13.275Z,1016.76
2018-01-07T03:53:23.012Z,1016.67
2018-01-07T03:54:32.961Z,1016.7
2018-01-07T03:55:42.647Z,1016.73
2018-01-07T03:56:52.396Z,1016.73
2018-01-07T03:58:02.346Z,1016.8
2018-01-07T03:59:11.791Z,1016.81
2018-01-07T04:00:21.500Z,1016.84
2018-01-07T04:01:31.207Z,1016.86
2018-01-07T04:02:40.914Z,1016.85
2018-01-07T04:03:50.857Z,1016.87
2018-01-07T04:05:00.806Z,1016.92
2018-01-07T04:06:10.491Z,1016.91
2018-01-07T04:07:20.432Z,1016.86
2018-01-07T04:08:30.121Z,1016.9
2018-01-07T04:09:40.074Z,1016.92
2018-01-07T04:10:50.025Z,1016.97
2018-01-07T04:11:59.988Z,1017.03
2018-01-07T04:13:09.939Z,1017.05
2018-01-07T04:14:19.619Z,1017.07
2018-01-07T04:15:29.307Z,1017.14
2018-01-07T04:16:39.243Z,1017.12
2018-01-07T04:17:48.667Z,1017.18
2018-01-07T04:18:58.354Z,1017.15
2018-01-07T04:20:08.296Z,1017.14
2018-01-07T04:21:18.245Z,1017.2
2018-01-07T04:22:28.203Z,1017.21
2018-01-07T04:23:37.641Z,1017.24
2018-01-07T04:24:47.606Z,1017.27
2018-01-07T04:25:57.041Z,1017.24
2018-01-07T04:27:06.725Z,1017.19
2018-01-07T04:28:16.165Z,1017.22
2018-01-07T04:29:25.870Z,1017.25
2018-01-07T04:30:35.822Z,1017.27
2018-01-07T04:31:45.762Z,1017.33
2018-01-07T04:32:55.729Z,1017.23
2018-01-07T04:34:05.445Z,1017.32
2018-01-07T04:35:15.128Z,1017.35
2018-01-07T04:36:25.124Z,1017.4
2018-01-07T04:37:35.081Z,1017.4
2018-01-07T04:38:44.759Z,1017.41
2018-01-07T04:39:54.200Z,1017.37
2018-01-07T04:41:04.144Z,1017.43
2018-01-07T04:42:14.108Z,1017.51
2018-01-07T04:43:24.055Z,1017.48
2018-01-07T04:44:33.992Z,1017.45
2018-01-07T04:45:43.945Z,1017.54
2018-01-07T04:46:53.882Z,1017.57
2018-01-07T04:48:03.834Z,1017.58
2018-01-07T04:49:13.778Z,1017.64
2018-01-07T04:50:23.746Z,1017.66
2018-01-07T04:51:33.455Z,1017.68
2018-01-07T04:52:43.402Z,1017.71
2018-01-07T04:53:52.835Z,1017.69
2018-01-07T04:55:02.776Z,1017.71
2018-01-07T04:56:12.725Z,1017.75
2018-01-07T04:57:22.714Z,1017.8
2018-01-07T04:58:32.664Z,1017.69
2018-01-07T04:59:42.352Z,1017.81
2018-01-07T05:00:52.056Z,1017.81
2018-01-07T05:02:02.005Z,1017.79
2018-01-07T05:03:11.707Z,1017.79
2018-01-07T05:04:21.665Z,1017.85
2018-01-07T05:05:31.107Z,1017.86
2018-01-07T05:06:41.067Z,1017.87
2018-01-07T05:07:51.001Z,1017.89
2018-01-07T05:09:00.698Z,1017.96
2018-01-07T05:10:10.638Z,1018.03
2018-01-07T05:11:20.584Z,1018.03
2018-01-07T05:12:30.017Z,1018.03
2018-01-07T05:13:39.961Z,1018.11
2018-01-07T05:14:49.910Z,1018.12
2018-01-07T05:15:59.855Z,1018.16
2018-01-07T05:17:09.802Z,1018.13
2018-01-07T05:18:19.741Z,1018.18
2018-01-07T05:19:29.689Z,1018.2
2018-01-07T05:20:39.636Z,1018.22
2018-01-07T05:21:49.581Z,1018.22
2018-01-07T05:22:59.542Z,1018.29
2018-01-07T05:24:09.518Z,1018.35
2018-01-07T05:25:18.958Z,1018.28
2018-01-07T05:26:28.893Z,1018.35
2018-01-07T05:27:38.822Z,1018.4
2018-01-07T05:28:48.518Z,1018.43
2018-01-07T05:29:58.201Z,1018.51
2018-01-07T05:31:07.893Z,1018.51
2018-01-07T05:32:17.576Z,1018.52
2018-01-07T05:33:27.260Z,1018.55
2018-01-07T05:34:37.204Z,1018.61
2018-01-07T05:35:47.138Z,1018.66
2018-01-07T05:36:56.826Z,1018.64
2018-01-07T05:38:06.771Z,1018.63
2018-01-07T05:39:16.735Z,1018.68
2018-01-07T05:40:26.675Z,1018.73
2018-01-07T05:41:36.631Z,1018.73
2018-01-07T05:42:46.373Z,1018.77
2018-01-07T05:43:56.322Z,1018.74
2018-01-07T05:45:06.003Z,1018.76
2018-01-07T05:46:15.964Z,1018.84
2018-01-07T05:47:25.912Z,1018.85
2018-01-07T05:48:35.602Z,1018.85
2018-01-07T05:49:45.558Z,1018.94
2018-01-07T05:50:55.498Z,1018.91
2018-01-07T05:52:05.447Z,1018.91
2018-01-07T05:53:15.129Z,1018.91
2018-01-07T05:54:25.070Z,1018.95
2018-01-07T05:55:34.762Z,1018.93
2018-01-07T05:56:44.716Z,1018.94
2018-01-07T05:57:54.397Z,1018.98
2018-01-07T05:59:04.080Z,1019
2018-01-07T06:00:14.022Z,1019.06
2018-01-07T06:01:23.969Z,1019.06
2018-01-07T06:02:33.912Z,1019.06
2018-01-07T06:03:43.864Z,1019.11
2018-01-07T06:04:53.820Z,1019.15
2018-01-07T06:06:03.770Z,1019.17
2018-01-07T06:07:13.715Z,1019.19
2018-01-07T06:08:23.659Z,1019.2
2018-01-07T06:09:33.341Z,1019.25
2018-01-07T06:10:43.306Z,1019.26
2018-01-07T06:11:54.151Z,1019.3
2018-01-07T06:13:03.834Z,1019.35
2018-01-07T06:14:13.780Z,1019.39
2018-01-07T06:15:23.740Z,1019.45
2018-01-07T06:16:33.681Z,1019.41
2018-01-07T06:17:43.369Z,1019.49
2018-01-07T06:18:53.310Z,1019.5
2018-01-07T06:20:03.263Z,1019.53
2018-01-07T06:21:12.999Z,1019.54
2018-01-07T06:22:22.942Z,1019.56
2018-01-07T06:23:32.628Z,1019.6
2018-01-07T06:24:42.323Z,1019.61
2018-01-07T06:25:52.275Z,1019.68
2018-01-07T06:27:02.236Z,1019.74
2018-01-07T06:28:12.325Z,1019.74
2018-01-07T06:29:22.273Z,1019.72
2018-01-07T06:30:31.971Z,1019.79
2018-01-07T06:31:41.926Z,1019.81
2018-01-07T06:32:51.876Z,1019.84
2018-01-07T06:34:01.561Z,1019.86
2018-01-07T06:35:11.516Z,1019.88
2018-01-07T06:36:21.215Z,1019.92
2018-01-07T06:37:31.169Z,1019.92
2018-01-07T06:38:40.854Z,1019.99
2018-01-07T06:39:50.801Z,1020
2018-01-07T06:41:00.761Z,1020.06
2018-01-07T06:42:10.704Z,1020.09
2018-01-07T06:43:20.655Z,1020.1
2018-01-07T06:44:30.588Z,1020.1
2018-01-07T06:45:40.541Z,1020.11
2018-01-07T06:46:50.501Z,1020.16
2018-01-07T06:48:00.187Z,1020.14
2018-01-07T06:49:10.127Z,1020.18
2018-01-07T06:50:20.103Z,1020.23
2018-01-07T06:51:30.044Z,1020.2
2018-01-07T06:52:39.991Z,1020.27
2018-01-07T06:53:49.950Z,1020.28
2018-01-07T06:54:59.386Z,1020.3
2018-01-07T06:56:09.354Z,1020.36
2018-01-07T06:57:19.308Z,1020.36
2018-01-07T06:58:29.011Z,1020.37
2018-01-07T06:59:38.981Z,1020.37
2018-01-07T07:00:48.939Z,1020.43
2018-01-07T07:01:58.627Z,1020.43
2018-01-07T07:03:08.303Z,1020.47
2018-01-07T07:04:17.729Z,1020.51
2018-01-07T07:05:27.675Z,1020.5
2018-01-07T07:06:37.354Z,1020.54
2018-01-07T07:07:47.290Z,1020.59
2018-01-07T07:08:57.024Z,1020.6
2018-01-07T07:10:07.014Z,1020.62
2018-01-07T07:11:16.968Z,1020.65
2018-01-07T07:12:26.913Z,1020.64
2018-01-07T07:13:36.592Z,1020.71
2018-01-07T07:14:46.284Z,1020.75
2018-01-07T07:15:56.228Z,1020.78
2018-01-07T07:17:05.396Z,1020.85
2018-01-07T07:18:15.348Z,1020.85
2018-01-07T07:19:25.301Z,1020.88
2018-01-07T07:20:35.242Z,1020.88
2018-01-07T07:21:44.999Z,1020.97
2018-01-07T07:22:54.952Z,1020.96
2018-01-07T07:24:04.897Z,1020.95
2018-01-07T07:25:14.842Z,1020.96
2018-01-07T07:26:24.789Z,1021.02
2018-01-07T07:27:34.726Z,1021.08
2018-01-07T07:28:44.156Z,1021.11
2018-01-07T07:29:53.840Z,1021.16
2018-01-07T07:31:03.533Z,1021.22
2018-01-07T07:32:13.473Z,1021.26
2018-01-07T07:33:23.428Z,1021.28
2018-01-07T07:34:33.123Z,1021.32
2018-01-07T07:35:42.836Z,1021.3
2018-01-07T07:36:52.528Z,1021.4
2018-01-07T07:38:02.487Z,1021.39
2018-01-07T07:39:12.176Z,1021.41
2018-01-07T07:40:22.336Z,1021.46
2018-01-07T07:41:32.290Z,1021.46
2018-01-07T07:42:42.238Z,1021.49
2018-01-07T07:43:52.192Z,1021.53
2018-01-07T07:45:02.154Z,1021.6
2018-01-07T07:46:11.842Z,1021.68
2018-01-07T07:47:21.789Z,1021.73
2018-01-07T07:48:31.468Z,1021.71
2018-01-07T07:49:41.411Z,1021.8
2018-01-07T07:50:51.090Z,1021.81
2018-01-07T07:52:01.038Z,1021.76
2018-01-07T07:53:10.989Z,1021.78
2018-01-07T07:54:20.689Z,1021.83
2018-01-07T07:55:30.659Z,1021.86
2018-01-07T07:56:40.097Z,1021.86
2018-01-07T07:57:49.799Z,1021.92
2018-01-07T07:58:59.753Z,1021.94
2018-01-07T08:00:09.721Z,1021.96
2018-01-07T08:01:19.692Z,1021.96
2018-01-07T08:02:29.654Z,1022
2018-01-07T08:03:39.606Z,1022
2018-01-07T08:04:49.553Z,1022.02
2018-01-07T08:05:59.502Z,1022
2018-01-07T08:07:09.469Z,1021.98
2018-01-07T08:08:18.907Z,1021.98
2018-01-07T08:09:28.603Z,1022.01
2018-01-07T08:10:38.570Z,1022.05
2018-01-07T08:11:48.524Z,1022.12
2018-01-07T08:12:58.472Z,1022.1
2018-01-07T08:14:08.415Z,1022.17
2018-01-07T08:15:17.587Z,1022.19
2018-01-07T08:16:27.280Z,1022.18
2018-01-07T08:17:36.969Z,1022.21
2018-01-07T08:18:46.932Z,1022.22
2018-01-07T08:19:56.881Z,1022.2
2018-01-07T08:21:06.830Z,1022.2
2018-01-07T08:22:16.526Z,1022.16
2018-01-07T08:23:26.223Z,1022.13
2018-01-07T08:24:36.217Z,1022.09
2018-01-07T08:25:46.166Z,1022.07
2018-01-07T08:26:55.851Z,1022.05
2018-01-07T08:28:05.540Z,1021.96
2018-01-07T08:29:15.489Z,1021.95
2018-01-07T08:30:25.441Z,1021.93
2018-01-07T08:31:35.391Z,1022.03
2018-01-07T08:32:45.382Z,1022.07
2018-01-07T08:33:55.334Z,1022.06
2018-01-07T08:35:05.293Z,1022.08
2018-01-07T08:36:15.257Z,1022.05
2018-01-07T08:37:24.944Z,1022.05
2018-01-07T08:38:34.902Z,1022.07
2018-01-07T08:39:44.602Z,1022.08
2018-01-07T08:40:54.578Z,1022.1
2018-01-07T08:42:04.348Z,1022.12
2018-01-07T08:43:14.306Z,1022.15
2018-01-07T08:44:24.256Z,1022.2
2018-01-07T08:45:34.198Z,1022.26
2018-01-07T08:46:44.146Z,1022.28
2018-01-07T08:47:54.098Z,1022.37
2018-01-07T08:49:03.791Z,1022.31
2018-01-07T08:50:13.745Z,1022.38
2018-01-07T08:51:23.725Z,1022.4
2018-01-07T08:52:33.674Z,1022.4
2018-01-07T08:53:43.369Z,1022.44
2018-01-07T08:54:53.311Z,1022.45
2018-01-07T08:56:03.255Z,1022.42
2018-01-07T08:57:12.954Z,1022.44
2018-01-07T08:58:22.656Z,1022.48
2018-01-07T08:59:32.628Z,1022.49
2018-01-07T09:00:42.584Z,1022.49
2018-01-07T09:01:52.551Z,1022.54
2018-01-07T09:03:02.263Z,1022.57
2018-01-07T09:04:11.968Z,1022.61
2018-01-07T09:05:21.926Z,1022.7
2018-01-07T09:06:31.876Z,1022.75
2018-01-07T09:07:41.838Z,1022.73
2018-01-07T09:08:51.795Z,1022.76
2018-01-07T09:10:01.501Z,1022.81
2018-01-07T09:11:11.477Z,1022.77
2018-01-07T09:12:21.422Z,1022.86
2018-01-07T09:13:31.373Z,1022.9
2018-01-07T09:14:41.321Z,1022.89
2018-01-07T09:15:51.290Z,1022.93
2018-01-07T09:17:00.994Z,1022.9
2018-01-07T09:18:10.697Z,1022.93
2018-01-07T09:19:20.404Z,1022.95
2018-01-07T09:20:30.373Z,1022.94
2018-01-07T09:21:40.338Z,1022.97
2018-01-07T09:22:50.040Z,1022.99
2018-01-07T09:23:59.726Z,1022.98
2018-01-07T09:25:09.703Z,1023.04
2018-01-07T09:26:19.399Z,1023.09
2018-01-07T09:27:29.354Z,1023.12
2018-01-07T09:28:39.328Z,1023.08
2018-01-07T09:29:49.279Z,1023.12
2018-01-07T09:30:59.237Z,1023.18
2018-01-07T09:32:09.187Z,1023.21
2018-01-07T09:33:19.200Z,1023.17
2018-01-07T09:34:29.157Z,1023.2
2018-01-07T09:35:39.109Z,1023.17
2018-01-07T09:36:49.079Z,1023.3
2018-01-07T09:37:59.035Z,1023.28
2018-01-07T09:39:08.988Z,1023.27
2018-01-07T09:40:18.955Z,1023.32
2018-01-07T09:41:28.403Z,1023.31
2018-01-07T09:42:37.851Z,1023.29
2018-01-07T09:43:47.565Z,1023.25
2018-01-07T09:44:57.262Z,1023.34
2018-01-07T09:46:06.956Z,1023.34
2018-01-07T09:47:16.925Z,1023.33
2018-01-07T09:48:26.883Z,1023.36
2018-01-07T09:49:36.830Z,1023.32
2018-01-07T09:50:46.005Z,1023.34
2018-01-07T09:51:55.709Z,1023.36
2018-01-07T09:53:05.407Z,1023.36
2018-01-07T09:54:15.100Z,1023.41
2018-01-07T09:55:24.802Z,1023.46
2018-01-07T09:56:34.764Z,1023.47
2018-01-07T09:57:44.748Z,1023.5
2018-01-07T09:58:54.449Z,1023.48
2018-01-07T10:00:04.140Z,1023.56
2018-01-07T10:01:13.836Z,1023.56
2018-01-07T10:02:23.807Z,1023.62
2018-01-07T10:03:33.505Z,1023.58
2018-01-07T10:04:43.507Z,1023.64
2018-01-07T10:05:53.487Z,1023.58
2018-01-07T10:07:03.445Z,1023.61
2018-01-07T10:08:12.885Z,1023.57
2018-01-07T10:09:22.858Z,1023.57
2018-01-07T10:10:32.544Z,1023.58
2018-01-07T10:11:42.503Z,1023.6
2018-01-07T10:12:52.464Z,1023.56
2018-01-07T10:14:02.434Z,1023.55
2018-01-07T10:15:12.394Z,1023.57
2018-01-07T10:16:22.354Z,1023.51
2018-01-07T10:17:32.051Z,1023.65
2018-01-07T10:18:41.746Z,1023.63
2018-01-07T10:19:51.689Z,1023.71
2018-01-07T10:21:01.683Z,1023.72
2018-01-07T10:22:11.670Z,1023.74
2018-01-07T10:23:21.355Z,1023.78
2018-01-07T10:24:31.317Z,1023.79
2018-01-07T10:25:41.016Z,1023.86
2018-01-07T10:26:50.979Z,1023.87
2018-01-07T10:28:00.673Z,1023.92
2018-01-07T10:29:10.643Z,1023.87
2018-01-07T10:30:20.350Z,1023.85
2018-01-07T10:31:30.295Z,1023.89
2018-01-07T10:32:40.154Z,1023.91
2018-01-07T10:33:49.861Z,1023.9
2018-01-07T10:34:59.560Z,1023.91
2018-01-07T10:36:09.270Z,1023.92
2018-01-07T10:37:18.976Z,1023.9
2018-01-07T10:38:28.955Z,1023.93
2018-01-07T10:39:38.653Z,1023.92
2018-01-07T10:40:48.607Z,1023.94
2018-01-07T10:41:58.556Z,1023.98
2018-01-07T10:43:08.509Z,1024
2018-01-07T10:44:18.473Z,1024.03
2018-01-07T10:45:28.440Z,1024.04
2018-01-07T10:46:38.400Z,1024.04
2018-01-07T10:47:48.352Z,1024.06
2018-01-07T10:48:58.300Z,1024.1
2018-01-07T10:50:08.009Z,1024.11
2018-01-07T10:51:17.951Z,1024.16
2018-01-07T10:52:27.906Z,1024.14
2018-01-07T10:53:37.603Z,1024.15
2018-01-07T10:54:47.580Z,1024.21
2018-01-07T10:55:57.538Z,1024.22
2018-01-07T10:57:07.538Z,1024.25
2018-01-07T10:58:17.503Z,1024.21
2018-01-07T10:59:27.207Z,1024.23
2018-01-07T11:00:36.632Z,1024.23
2018-01-07T11:01:46.616Z,1024.21
2018-01-07T11:02:56.299Z,1024.23
2018-01-07T11:04:06.265Z,1024.24
2018-01-07T11:05:16.282Z,1024.22
2018-01-07T11:06:26.247Z,1024.26
2018-01-07T11:07:36.247Z,1024.25
2018-01-07T11:08:46.207Z,1024.3
2018-01-07T11:09:56.177Z,1024.28
2018-01-07T11:11:06.166Z,1024.29
2018-01-07T11:12:16.136Z,1024.31
2018-01-07T11:13:25.842Z,1024.33
2018-01-07T11:14:35.818Z,1024.33
2018-01-07T11:15:45.581Z,1024.31
2018-01-07T11:16:55.072Z,1024.29
2018-01-07T11:18:05.035Z,1024.29
2018-01-07T11:19:14.751Z,1024.32
2018-01-07T11:20:24.443Z,1024.38
2018-01-07T11:21:34.397Z,1024.41
2018-01-07T11:22:44.360Z,1024.39
2018-01-07T11:23:54.067Z,1024.45
2018-01-07T11:25:04.039Z,1024.45
2018-01-07T11:26:13.489Z,1024.48
2018-01-07T11:27:23.207Z,1024.48
2018-01-07T11:28:32.907Z,1024.46
2018-01-07T11:29:42.874Z,1024.42
2018-01-07T11:30:52.817Z,1024.36
2018-01-07T11:32:02.513Z,1024.33
2018-01-07T11:33:12.237Z,1024.37
2018-01-07T11:34:22.204Z,1024.36
2018-01-07T11:35:31.913Z,1024.32
2018-01-07T11:36:41.605Z,1024.32
2018-01-07T11:37:51.563Z,1024.28
2018-01-07T11:39:01.522Z,1024.28
2018-01-07T11:40:11.228Z,1024.24
2018-01-07T11:41:21.197Z,1024.29
2018-01-07T11:42:31.173Z,1024.29
2018-01-07T11:43:40.872Z,1024.32
2018-01-07T11:44:50.846Z,1024.29
2018-01-07T11:46:00.284Z,1024.33
2018-01-07T11:47:10.272Z,1024.33
2018-01-07T11:48:20.254Z,1024.3
2018-01-07T11:49:30.206Z,1024.33
2018-01-07T11:50:40.177Z,1024.35
2018-01-07T11:51:49.891Z,1024.26
2018-01-07T11:52:59.589Z,1024.31
2018-01-07T11:54:09.705Z,1024.32
2018-01-07T11:55:19.405Z,1024.3
2018-01-07T11:56:29.365Z,1024.33
2018-01-07T11:57:39.094Z,1024.37
2018-01-07T11:58:48.861Z,1024.37
2018-01-07T11:59:58.872Z,1024.38
2018-01-07T12:01:08.318Z,1024.39
2018-01-07T12:02:18.283Z,1024.39
2018-01-07T12:03:28.255Z,1024.43
2018-01-07T12:04:38.030Z,1024.41
2018-01-07T12:05:47.987Z,1024.38
2018-01-07T12:06:57.952Z,1024.37
2018-01-07T12:08:07.647Z,1024.39
2018-01-07T12:09:17.607Z,1024.42
2018-01-07T12:10:27.558Z,1024.39
2018-01-07T12:11:37.268Z,1024.41
2018-01-07T12:12:46.978Z,1024.42
2018-01-07T12:13:56.672Z,1024.41
2018-01-07T12:15:06.382Z,1024.4
2018-01-07T12:16:16.337Z,1024.41
2018-01-07T12:17:26.305Z,1024.4
2018-01-07T12:18:35.998Z,1024.38
2018-01-07T12:19:45.955Z,1024.37
2018-01-07T12:20:55.915Z,1024.4
2018-01-07T12:22:05.881Z,1024.35
2018-01-07T12:23:15.833Z,1024.37
2018-01-07T12:24:25.775Z,1024.38
2018-01-07T12:25:35.985Z,1024.34
2018-01-07T12:26:45.931Z,1024.36
2018-01-07T12:27:55.892Z,1024.31
2018-01-07T12:29:05.588Z,1024.32
2018-01-07T12:30:15.550Z,1024.32
2018-01-07T12:31:25.550Z,1024.31
2018-01-07T12:32:35.254Z,1024.37
2018-01-07T12:33:45.211Z,1024.34
2018-01-07T12:34:55.187Z,1024.24
2018-01-07T12:36:05.138Z,1024.34
2018-01-07T12:37:14.850Z,1024.42
2018-01-07T12:38:24.796Z,1024.42
2018-01-07T12:39:34.660Z,1024.43
2018-01-07T12:40:44.632Z,1024.44
2018-01-07T12:41:54.593Z,1024.44
2018-01-07T12:43:04.768Z,1024.4
2018-01-07T12:44:14.741Z,1024.44
2018-01-07T12:45:24.694Z,1024.48
2018-01-07T12:46:34.663Z,1024.51
2018-01-07T12:47:44.630Z,1024.5
2018-01-07T12:48:54.591Z,1024.46
2018-01-07T12:50:04.586Z,1024.45
2018-01-07T12:51:14.558Z,1024.5
2018-01-07T12:52:24.517Z,1024.52
2018-01-07T12:53:34.226Z,1024.55
2018-01-07T12:54:44.193Z,1024.56
2018-01-07T12:55:53.635Z,1024.52
2018-01-07T12:57:03.595Z,1024.5
2018-01-07T12:58:13.552Z,1024.48
2018-01-07T12:59:23.532Z,1024.48
2018-01-07T13:00:33.513Z,1024.51
2018-01-07T13:01:43.469Z,1024.48
2018-01-07T13:02:53.192Z,1024.46
2018-01-07T13:04:02.900Z,1024.5
2018-01-07T13:05:12.866Z,1024.47
2018-01-07T13:06:22.852Z,1024.47
2018-01-07T13:07:32.556Z,1024.56
2018-01-07T13:08:42.517Z,1024.47
2018-01-07T13:09:52.485Z,1024.53
2018-01-07T13:11:02.186Z,1024.46
2018-01-07T13:12:11.886Z,1024.5
2018-01-07T13:13:21.880Z,1024.51
2018-01-07T13:14:31.845Z,1024.5
2018-01-07T13:15:41.548Z,1024.53
2018-01-07T13:16:51.506Z,1024.55
2018-01-07T13:18:01.460Z,1024.51
2018-01-07T13:19:11.405Z,1024.57
2018-01-07T13:20:21.376Z,1024.59
2018-01-07T13:21:31.326Z,1024.6
2018-01-07T13:22:41.280Z,1024.64
2018-01-07T13:23:51.263Z,1024.64
2018-01-07T13:25:00.696Z,1024.68
2018-01-07T13:26:10.656Z,1024.66
2018-01-07T13:27:20.617Z,1024.68
2018-01-07T13:28:30.315Z,1024.65
2018-01-07T13:29:40.267Z,1024.68
2018-01-07T13:30:50.221Z,1024.7
2018-01-07T13:32:00.183Z,1024.69
2018-01-07T13:33:09.954Z,1024.69
2018-01-07T13:34:19.655Z,1024.71
2018-01-07T13:35:29.608Z,1024.72
2018-01-07T13:36:39.555Z,1024.75
2018-01-07T13:37:49.506Z,1024.75
2018-01-07T13:38:59.469Z,1024.75
2018-01-07T13:40:09.178Z,1024.76
2018-01-07T13:41:18.888Z,1024.76
2018-01-07T13:42:28.856Z,1024.89
2018-01-07T13:43:38.565Z,1024.86
2018-01-07T13:44:48.523Z,1024.87
2018-01-07T13:45:58.484Z,1024.93
2018-01-07T13:47:08.189Z,1024.96
2018-01-07T13:48:18.136Z,1024.93
2018-01-07T13:49:27.827Z,1024.93
2018-01-07T13:50:37.526Z,1024.99
2018-01-07T13:51:47.473Z,1025.02
2018-01-07T13:52:57.441Z,1025.02
2018-01-07T13:54:07.412Z,1025.06
2018-01-07T13:55:17.374Z,1025.04
2018-01-07T13:56:27.063Z,1025.1
2018-01-07T13:57:37.015Z,1025.13
2018-01-07T13:58:46.974Z,1025.14
2018-01-07T13:59:56.992Z,1025.11
2018-01-07T14:01:06.436Z,1025.13
2018-01-07T14:02:16.406Z,1025.18
2018-01-07T14:03:26.121Z,1025.19
2018-01-07T14:04:35.569Z,1025.23
2018-01-07T14:05:45.539Z,1025.2
2018-01-07T14:06:54.978Z,1025.27
2018-01-07T14:08:04.954Z,1025.28